Time;durP1;ratioP1;P1;durP2;ratioP2;P2;SDS_P1;SDS_P2;PMS_P1;PMS_P2;Temp;Humidity;BMP_temperature;BMP_pressure;BME280_temperature;BME280_humidity;BME280_pressure;Samples;Min_cycle;Max_cycle;Signal;HPM_P1;HPM_P2
2021/01/19 00:01:50;;;;;;;13.20;10.50;;;5.80;99.90;;;;;;5105456;28;20172;-76
2021/01/19 00:04:16;;;;;;;16.40;10.10;;;5.80;99.90;;;;;;5095787;27;20239;-75
2021/01/19 00:06:41;;;;;;;14.63;11.13;;;5.80;99.90;;;;;;5099332;28;20661;-74
2021/01/19 00:09:07;;;;;;;12.23;10.10;;;5.80;99.90;;;;;;5114348;28;20179;-75
2021/01/19 00:11:33;;;;;;;14.23;9.80;;;5.80;99.90;;;;;;5112778;28;20191;-74
2021/01/19 00:13:58;;;;;;;12.17;8.93;;;5.70;99.90;;;;;;5115379;28;20176;-74
2021/01/19 00:16:24;;;;;;;11.30;9.97;;;5.80;99.90;;;;;;5130590;28;20196;-75
2021/01/19 00:18:49;;;;;;;14.20;9.20;;;5.70;99.90;;;;;;5135637;27;20213;-76
2021/01/19 00:21:15;;;;;;;9.27;8.03;;;5.70;99.90;;;;;;5127252;28;20188;-75
2021/01/19 00:23:40;;;;;;;11.33;8.27;;;5.80;99.90;;;;;;5113341;28;20180;-73
2021/01/19 00:26:06;;;;;;;12.17;9.17;;;5.70;99.90;;;;;;5114617;28;20199;-75
2021/01/19 00:28:31;;;;;;;13.20;8.40;;;5.70;99.90;;;;;;5114236;28;20511;-74
2021/01/19 00:30:57;;;;;;;11.33;8.20;;;5.70;99.90;;;;;;5114109;28;20172;-75
2021/01/19 00:33:22;;;;;;;9.93;8.00;;;5.70;99.90;;;;;;5106530;28;20183;-74
2021/01/19 00:35:48;;;;;;;10.27;8.47;;;5.80;99.90;;;;;;5093807;28;20199;-74
2021/01/19 00:38:13;;;;;;;12.67;8.10;;;5.70;99.90;;;;;;5093265;27;20217;-75
2021/01/19 00:40:39;;;;;;;14.30;8.60;;;5.80;99.90;;;;;;5094179;28;20245;-74
2021/01/19 00:43:05;;;;;;;10.53;8.00;;;5.80;99.90;;;;;;5104845;28;20183;-74
2021/01/19 00:45:30;;;;;;;13.23;8.30;;;5.80;99.90;;;;;;5114090;28;20594;-75
2021/01/19 00:47:56;;;;;;;9.70;7.57;;;5.80;99.90;;;;;;5114411;28;20169;-74
2021/01/19 00:50:22;;;;;;;11.97;8.17;;;5.80;99.90;;;;;;5112181;27;20590;-75
2021/01/19 00:52:47;;;;;;;13.70;7.70;;;5.80;99.90;;;;;;5096233;28;20161;-74
2021/01/19 00:55:14;;;;;;;11.50;7.40;;;5.80;99.90;;;;;;5097080;28;20415;-74
2021/01/19 00:57:40;;;;;;;8.30;6.90;;;5.70;99.90;;;;;;5097485;28;20237;-74
2021/01/19 01:00:07;;;;;;;9.53;7.20;;;5.70;99.90;;;;;;5097961;28;20422;-74
2021/01/19 01:02:36;;;;;;;9.93;6.70;;;5.70;99.90;;;;;;5098591;28;20177;-74
2021/01/19 01:05:04;;;;;;;7.20;6.20;;;5.70;99.90;;;;;;5096491;28;20407;-74
2021/01/19 01:07:37;;;;;;;6.90;5.60;;;5.70;99.90;;;;;;5097442;27;20504;-74
2021/01/19 01:10:05;;;;;;;10.30;7.30;;;5.70;99.90;;;;;;5097221;28;20402;-73
2021/01/19 01:12:30;;;;;;;6.23;5.20;;;5.70;99.90;;;;;;5105898;28;20882;-74
2021/01/19 01:14:56;;;;;;;8.77;5.60;;;5.70;99.90;;;;;;5117326;28;20412;-74
2021/01/19 01:17:21;;;;;;;7.50;5.03;;;5.70;99.90;;;;;;5117455;28;20203;-74
2021/01/19 01:19:47;;;;;;;8.50;5.77;;;5.70;99.90;;;;;;5116960;27;20172;-76
2021/01/19 01:22:12;;;;;;;6.53;5.13;;;5.70;99.90;;;;;;5116771;28;20325;-75
2021/01/19 01:24:38;;;;;;;5.30;4.80;;;5.70;99.90;;;;;;5097091;28;20483;-76
2021/01/19 01:27:04;;;;;;;7.50;6.20;;;5.70;99.90;;;;;;5096942;28;20185;-75
2021/01/19 01:29:30;;;;;;;9.73;5.60;;;5.70;99.90;;;;;;5096748;28;20184;-75
2021/01/19 01:31:55;;;;;;;7.73;5.83;;;5.70;99.90;;;;;;5096451;27;20426;-75
2021/01/19 01:34:21;;;;;;;6.90;5.07;;;5.70;99.90;;;;;;5097424;28;20192;-75
2021/01/19 01:36:46;;;;;;;6.53;5.30;;;5.60;99.90;;;;;;5096399;28;20265;-75
2021/01/19 01:39:12;;;;;;;5.70;5.00;;;5.70;99.90;;;;;;5096111;28;20212;-76
2021/01/19 01:41:37;;;;;;;12.00;5.87;;;5.70;99.90;;;;;;5096754;28;20197;-76
2021/01/19 01:44:03;;;;;;;9.53;5.90;;;5.70;99.90;;;;;;5097154;28;20177;-75
2021/01/19 01:46:36;;;;;;;8.73;5.07;;;5.80;99.90;;;;;;5096101;27;20201;-75
2021/01/19 01:49:03;;;;;;;10.53;5.60;;;5.80;99.90;;;;;;5096943;28;20178;-75
2021/01/19 01:51:29;;;;;;;7.87;5.87;;;5.90;99.90;;;;;;5096967;28;20421;-75
2021/01/19 01:53:56;;;;;;;6.17;5.33;;;5.90;99.90;;;;;;5096298;28;20403;-75
2021/01/19 01:56:23;;;;;;;5.80;4.63;;;5.80;99.90;;;;;;5096091;28;20433;-74
2021/01/19 01:58:51;;;;;;;7.60;4.80;;;5.80;99.90;;;;;;5097524;27;20531;-74
2021/01/19 02:01:16;;;;;;;7.77;4.97;;;5.70;99.90;;;;;;5097539;28;20453;-74
2021/01/19 02:03:42;;;;;;;5.00;4.50;;;5.70;99.90;;;;;;5097318;28;20855;-75
2021/01/19 02:06:07;;;;;;;6.73;6.00;;;5.70;99.90;;;;;;5096376;28;20196;-74
2021/01/19 02:08:55;;;;;;;5.93;4.77;;;5.60;99.90;;;;;;5102375;28;20317;-74
2021/01/19 02:11:32;;;;;;;6.33;4.60;;;5.60;99.90;;;;;;5115108;28;20172;-74
2021/01/19 02:14:12;;;;;;;6.23;4.90;;;5.50;99.90;;;;;;5116120;28;20409;-74
2021/01/19 02:17:01;;;;;;;5.83;3.93;;;5.50;99.90;;;;;;5116341;28;20422;-75
2021/01/19 02:20:01;;;;;;;12.43;5.33;;;5.60;99.90;;;;;;5105482;28;20454;-74
2021/01/19 02:22:42;;;;;;;5.93;4.60;;;5.60;99.90;;;;;;5095481;28;20391;-74
2021/01/19 02:25:25;;;;;;;7.67;4.93;;;5.70;99.90;;;;;;5095470;28;20410;-74
2021/01/19 02:28:10;;;;;;;6.33;5.23;;;5.70;99.90;;;;;;5095422;28;20821;-74
2021/01/19 02:31:00;;;;;;;8.60;4.63;;;5.60;99.90;;;;;;5095519;28;20449;-74
2021/01/19 02:33:49;;;;;;;5.33;4.37;;;5.70;99.90;;;;;;5094987;27;20453;-74
2021/01/19 02:36:30;;;;;;;4.67;3.90;;;5.70;99.90;;;;;;5095426;28;20569;-74
2021/01/19 02:38:59;;;;;;;6.60;4.23;;;5.70;99.90;;;;;;5094938;28;20465;-74
2021/01/19 02:41:26;;;;;;;4.20;3.80;;;5.70;99.90;;;;;;5108918;28;20462;-74
2021/01/19 02:44:17;;;;;;;6.37;4.00;;;5.70;99.90;;;;;;5115977;28;20489;-74
2021/01/19 02:46:43;;;;;;;4.70;4.17;;;5.60;99.90;;;;;;5115776;28;20418;-74
2021/01/19 02:49:08;;;;;;;3.63;3.33;;;5.70;99.90;;;;;;5116010;28;20750;-74
2021/01/19 02:51:34;;;;;;;5.90;4.30;;;5.70;99.90;;;;;;5113149;27;20297;-75
2021/01/19 02:54:01;;;;;;;5.17;4.57;;;5.70;99.90;;;;;;5115288;28;20536;-74
2021/01/19 02:56:36;;;;;;;4.90;3.70;;;5.70;99.90;;;;;;5115424;28;20253;-75
2021/01/19 02:59:22;;;;;;;9.57;4.13;;;5.70;99.90;;;;;;5115833;28;20464;-74
2021/01/19 03:01:58;;;;;;;5.13;4.63;;;5.70;99.90;;;;;;5123987;28;20410;-74
2021/01/19 03:04:25;;;;;;;9.87;5.30;;;5.70;99.90;;;;;;5114950;28;20458;-74
2021/01/19 03:06:51;;;;;;;5.03;3.77;;;5.50;99.90;;;;;;5115706;28;20468;-74
2021/01/19 03:09:18;;;;;;;5.50;3.53;;;5.60;99.90;;;;;;5115513;28;20467;-74
2021/01/19 03:11:46;;;;;;;4.93;3.20;;;5.60;99.90;;;;;;5114649;27;20445;-74
2021/01/19 03:14:12;;;;;;;3.97;3.43;;;5.50;99.90;;;;;;5114115;28;20539;-74
2021/01/19 03:16:37;;;;;;;7.93;2.90;;;5.50;99.90;;;;;;5115224;28;20429;-74
2021/01/19 03:19:04;;;;;;;3.57;3.20;;;5.50;99.90;;;;;;5114347;28;20203;-75
2021/01/19 03:21:29;;;;;;;5.00;3.10;;;5.50;99.90;;;;;;5115119;28;20199;-74
2021/01/19 03:23:55;;;;;;;3.20;2.97;;;5.50;99.90;;;;;;5102242;28;20790;-76
2021/01/19 03:26:20;;;;;;;6.03;3.17;;;5.50;99.90;;;;;;5103009;27;20237;-74
2021/01/19 03:28:46;;;;;;;7.00;3.70;;;5.50;99.90;;;;;;5093135;28;20227;-74
2021/01/19 03:31:11;;;;;;;3.47;3.17;;;5.50;99.90;;;;;;5095024;28;20238;-74
2021/01/19 03:33:37;;;;;;;4.50;3.07;;;5.50;99.90;;;;;;5098872;28;20176;-74
2021/01/19 03:36:03;;;;;;;6.90;3.43;;;5.50;99.90;;;;;;5115385;28;20192;-74
2021/01/19 03:38:28;;;;;;;8.63;4.33;;;5.60;99.90;;;;;;5115662;28;20553;-74
2021/01/19 03:40:54;;;;;;;5.27;2.70;;;5.60;99.90;;;;;;5116173;28;20617;-74
2021/01/19 03:43:19;;;;;;;5.20;4.70;;;5.50;99.90;;;;;;5115237;28;20506;-74
2021/01/19 03:45:45;;;;;;;3.60;3.10;;;5.50;99.90;;;;;;5113476;28;20196;-75
2021/01/19 03:48:11;;;;;;;4.13;3.10;;;5.50;99.90;;;;;;5110112;27;20193;-74
2021/01/19 03:50:36;;;;;;;3.40;2.80;;;5.50;99.90;;;;;;5107275;28;20533;-74
2021/01/19 03:53:02;;;;;;;4.13;2.80;;;5.50;99.90;;;;;;5106115;28;20165;-75
2021/01/19 03:55:30;;;;;;;2.93;2.63;;;5.50;99.90;;;;;;5113804;28;20177;-74
2021/01/19 03:57:56;;;;;;;5.00;3.60;;;5.50;99.90;;;;;;5102889;28;20253;-73
2021/01/19 04:00:22;;;;;;;3.90;2.80;;;5.50;99.90;;;;;;5094266;28;20405;-74
2021/01/19 04:02:48;;;;;;;4.63;3.00;;;5.50;99.90;;;;;;5093732;28;20407;-73
2021/01/19 04:05:13;;;;;;;3.57;2.50;;;5.50;99.90;;;;;;5093786;28;20500;-73
2021/01/19 04:07:40;;;;;;;7.33;3.47;;;5.50;99.90;;;;;;5093617;28;20208;-74
2021/01/19 04:10:10;;;;;;;7.57;3.10;;;5.50;99.90;;;;;;5093852;27;20181;-74
2021/01/19 04:12:36;;;;;;;4.50;2.60;;;5.50;99.90;;;;;;5092709;28;20730;-74
2021/01/19 04:15:04;;;;;;;3.30;2.57;;;5.50;99.90;;;;;;5108411;28;20414;-74
2021/01/19 04:17:29;;;;;;;4.23;2.63;;;5.50;99.90;;;;;;5112142;28;20196;-74
2021/01/19 04:19:55;;;;;;;6.23;3.20;;;5.60;99.90;;;;;;5113478;27;20897;-74
2021/01/19 04:22:21;;;;;;;3.80;3.10;;;5.50;99.90;;;;;;5114047;28;20174;-74
2021/01/19 04:24:46;;;;;;;11.57;4.63;;;5.60;99.90;;;;;;5112437;28;20521;-74
2021/01/19 04:27:12;;;;;;;6.40;3.10;;;5.50;99.90;;;;;;5113660;28;20414;-73
2021/01/19 04:29:37;;;;;;;5.93;3.37;;;5.50;99.90;;;;;;5114630;28;20167;-74
2021/01/19 04:32:03;;;;;;;8.10;3.50;;;5.50;99.90;;;;;;5118186;27;20197;-74
2021/01/19 04:34:29;;;;;;;6.10;3.23;;;5.50;99.90;;;;;;5117591;28;20255;-74
2021/01/19 04:36:54;;;;;;;7.07;3.20;;;5.50;99.90;;;;;;5116065;28;20252;-74
2021/01/19 04:39:20;;;;;;;6.50;3.73;;;5.50;99.90;;;;;;5118332;28;20608;-74
2021/01/19 04:41:47;;;;;;;14.03;3.70;;;5.50;99.90;;;;;;5117891;28;20298;-74
2021/01/19 04:44:13;;;;;;;6.43;3.90;;;5.50;99.90;;;;;;5117426;28;20550;-74
2021/01/19 04:46:40;;;;;;;8.37;3.70;;;5.40;99.90;;;;;;5107118;28;20775;-74
2021/01/19 04:49:06;;;;;;;3.20;2.90;;;5.40;99.90;;;;;;5097576;28;20407;-74
2021/01/19 04:51:34;;;;;;;8.37;3.80;;;5.40;99.90;;;;;;5097127;28;20395;-74
2021/01/19 04:54:03;;;;;;;3.93;3.20;;;5.40;99.90;;;;;;5097839;28;20450;-74
2021/01/19 04:56:29;;;;;;;3.73;3.13;;;5.40;99.90;;;;;;5100694;28;20435;-75
2021/01/19 04:58:56;;;;;;;4.60;3.30;;;5.40;99.90;;;;;;5118101;27;20498;-75
2021/01/19 05:02:06;;;;;;;4.10;2.80;;;5.40;99.90;;;;;;5118703;28;20420;-75
2021/01/19 05:04:47;;;;;;;6.20;3.07;;;5.40;99.90;;;;;;5074379;28;20971;-74
2021/01/19 05:07:33;;;;;;;6.23;3.20;;;5.30;99.90;;;;;;5070564;28;20451;-74
2021/01/19 05:13:46;;;;;;;4.50;2.83;;;5.40;99.90;;;;;;5054669;28;20403;-74
2021/01/19 05:16:22;;;;;;;4.40;2.60;;;5.30;99.90;;;;;;5054148;28;20442;-74
2021/01/19 05:18:48;;;;;;;6.53;2.57;;;5.40;99.90;;;;;;5065494;28;20817;-73
2021/01/19 05:21:14;;;;;;;5.87;2.67;;;5.40;99.90;;;;;;5073799;28;20438;-74
2021/01/19 05:23:40;;;;;;;7.27;2.73;;;5.40;99.90;;;;;;5074197;28;20407;-74
2021/01/19 05:26:08;;;;;;;5.90;2.80;;;5.30;99.90;;;;;;5074315;28;20423;-74
2021/01/19 05:28:36;;;;;;;6.50;3.73;;;5.30;99.90;;;;;;5073877;28;20924;-74
2021/01/19 05:31:06;;;;;;;5.97;2.73;;;5.30;99.90;;;;;;5074507;28;20431;-74
2021/01/19 05:33:35;;;;;;;3.97;3.00;;;5.40;99.90;;;;;;5056996;28;20554;-75
2021/01/19 05:36:08;;;;;;;5.20;3.17;;;5.30;99.90;;;;;;5073978;28;20515;-74
2021/01/19 05:38:55;;;;;;;4.17;3.30;;;5.30;99.90;;;;;;5072625;28;20459;-74
2021/01/19 05:41:30;;;;;;;4.40;2.60;;;5.30;99.90;;;;;;5086538;28;20408;-74
2021/01/19 05:44:07;;;;;;;4.07;2.80;;;5.30;99.90;;;;;;5096645;28;21178;-75
2021/01/19 05:46:33;;;;;;;7.03;3.43;;;5.30;99.90;;;;;;5096749;28;20418;-75
2021/01/19 05:49:00;;;;;;;10.33;3.00;;;5.30;99.90;;;;;;5105777;27;20529;-74
2021/01/19 05:51:30;;;;;;;12.17;2.90;;;5.30;99.90;;;;;;5116691;28;20408;-74
2021/01/19 05:53:58;;;;;;;8.70;3.30;;;5.30;99.90;;;;;;5116499;28;20827;-74
2021/01/19 05:56:24;;;;;;;3.03;2.77;;;5.20;99.90;;;;;;5116707;28;20414;-74
2021/01/19 05:58:50;;;;;;;7.17;3.40;;;5.30;99.90;;;;;;5113671;28;20444;-74
2021/01/19 06:01:34;;;;;;;6.33;2.60;;;5.30;99.90;;;;;;5095743;28;20459;-74
2021/01/19 06:04:02;;;;;;;4.90;2.73;;;5.20;99.90;;;;;;5096209;28;20405;-74
2021/01/19 06:06:29;;;;;;;6.93;2.97;;;5.30;99.90;;;;;;5095695;28;20494;-74
2021/01/19 06:09:04;;;;;;;3.33;3.00;;;5.30;99.90;;;;;;5096175;28;20493;-74
2021/01/19 06:11:30;;;;;;;5.80;3.07;;;5.30;99.90;;;;;;5096551;27;20450;-74
2021/01/19 06:13:57;;;;;;;5.77;2.90;;;5.30;99.90;;;;;;5094523;28;20414;-74
2021/01/19 06:16:24;;;;;;;4.77;2.70;;;5.30;99.90;;;;;;5100011;28;20191;-74
2021/01/19 06:18:51;;;;;;;5.07;3.20;;;5.30;99.90;;;;;;5119332;28;20508;-75
2021/01/19 06:21:30;;;;;;;5.27;3.30;;;5.30;99.90;;;;;;5118003;28;20404;-74
2021/01/19 06:23:57;;;;;;;4.03;3.00;;;5.30;99.90;;;;;;5116511;28;20409;-74
2021/01/19 06:26:22;;;;;;;3.30;2.70;;;5.20;99.90;;;;;;5116050;28;20425;-74
2021/01/19 06:28:48;;;;;;;3.40;3.10;;;5.20;99.90;;;;;;5114401;27;20977;-74
2021/01/19 06:31:14;;;;;;;9.23;3.50;;;5.30;99.90;;;;;;5116681;28;20175;-74
2021/01/19 06:33:47;;;;;;;8.50;3.70;;;5.20;99.90;;;;;;5115966;28;20189;-74
2021/01/19 06:36:14;;;;;;;7.60;3.87;;;5.30;99.90;;;;;;5115912;28;20434;-73
2021/01/19 06:38:44;;;;;;;3.00;2.30;;;5.30;99.90;;;;;;5116092;28;20450;-74
2021/01/19 06:41:15;;;;;;;3.33;2.80;;;5.30;99.90;;;;;;5118066;28;20416;-74
2021/01/19 06:43:54;;;;;;;3.17;2.87;;;5.30;99.90;;;;;;5125775;28;20412;-74
2021/01/19 06:46:21;;;;;;;4.13;2.70;;;5.30;99.90;;;;;;5120104;27;20799;-75
2021/01/19 06:48:47;;;;;;;3.93;3.10;;;5.30;99.90;;;;;;5119171;28;20839;-74
2021/01/19 06:51:14;;;;;;;5.37;2.97;;;5.30;99.90;;;;;;5114409;28;20843;-74
2021/01/19 06:53:52;;;;;;;6.17;2.83;;;5.30;99.90;;;;;;5114110;28;20407;-74
2021/01/19 06:56:27;;;;;;;4.47;3.03;;;5.30;99.90;;;;;;5115311;28;20760;-74
2021/01/19 06:58:55;;;;;;;8.43;3.00;;;5.30;99.90;;;;;;5115005;27;20446;-75
2021/01/19 07:01:21;;;;;;;3.57;2.87;;;5.40;99.90;;;;;;5111441;27;20509;-75
2021/01/19 07:03:49;;;;;;;5.80;3.03;;;5.40;99.90;;;;;;5112858;27;20918;-74
2021/01/19 07:06:16;;;;;;;6.47;3.03;;;5.40;99.90;;;;;;5131078;27;20433;-75
2021/01/19 07:09:18;;;;;;;3.57;2.63;;;5.40;99.90;;;;;;5123897;27;20437;-73
2021/01/19 07:11:58;;;;;;;3.00;2.70;;;5.40;99.90;;;;;;5108963;27;20432;-73
2021/01/19 07:14:39;;;;;;;5.17;2.90;;;5.40;99.90;;;;;;5115340;28;20409;-73
2021/01/19 07:17:17;;;;;;;2.93;2.63;;;5.40;99.90;;;;;;5122413;27;20946;-76
2021/01/19 07:19:48;;;;;;;3.60;2.67;;;5.40;99.90;;;;;;5125615;27;20489;-73
2021/01/19 07:22:51;;;;;;;6.17;2.70;;;5.40;99.90;;;;;;5148609;27;21086;-76
2021/01/19 07:25:17;;;;;;;5.03;2.80;;;5.40;99.90;;;;;;5117301;27;20411;-74
2021/01/19 07:27:44;;;;;;;2.33;2.23;;;5.40;99.90;;;;;;5121596;27;20479;-75
2021/01/19 07:30:11;;;;;;;4.70;2.90;;;5.40;99.90;;;;;;5139790;27;20405;-74
2021/01/19 07:32:37;;;;;;;4.00;2.70;;;5.40;99.90;;;;;;5134522;27;20891;-72
2021/01/19 07:35:06;;;;;;;4.80;2.67;;;5.40;99.90;;;;;;5116715;27;20433;-73
2021/01/19 07:37:32;;;;;;;2.90;2.60;;;5.40;99.90;;;;;;5113669;28;20424;-74
2021/01/19 07:39:59;;;;;;;4.90;2.67;;;5.40;99.90;;;;;;5123300;27;20434;-74
2021/01/19 07:42:25;;;;;;;3.00;2.70;;;5.50;99.90;;;;;;5113256;27;20806;-73
2021/01/19 07:44:55;;;;;;;2.97;2.67;;;5.40;99.90;;;;;;5115302;27;20420;-73
2021/01/19 07:47:21;;;;;;;3.53;2.23;;;5.40;99.90;;;;;;5112133;28;20481;-73
2021/01/19 07:49:46;;;;;;;3.00;2.67;;;5.40;99.90;;;;;;5116068;27;20818;-73
2021/01/19 07:52:15;;;;;;;6.03;2.50;;;5.40;99.90;;;;;;5122983;27;20180;-74
2021/01/19 07:54:42;;;;;;;3.40;2.40;;;5.40;99.90;;;;;;5122144;27;20198;-73
2021/01/19 07:57:29;;;;;;;2.77;2.53;;;5.50;99.90;;;;;;5130009;27;20941;-73
2021/01/19 07:59:57;;;;;;;4.50;2.50;;;5.50;99.90;;;;;;5113099;28;20458;-73
2021/01/19 08:02:24;;;;;;;2.03;1.90;;;5.50;99.90;;;;;;5128882;27;20409;-72
2021/01/19 08:05:00;;;;;;;3.10;2.30;;;5.50;99.90;;;;;;5117633;27;20430;-73
2021/01/19 08:07:37;;;;;;;2.30;2.10;;;5.50;99.90;;;;;;5111578;27;20436;-73
2021/01/19 08:10:04;;;;;;;2.90;2.40;;;5.50;99.90;;;;;;5099301;27;20406;-73
2021/01/19 08:12:36;;;;;;;2.70;2.27;;;5.50;99.90;;;;;;5134246;27;20392;-73
2021/01/19 08:15:04;;;;;;;2.43;2.23;;;5.60;99.90;;;;;;5112651;27;20463;-73
2021/01/19 08:17:37;;;;;;;2.80;2.00;;;5.60;99.90;;;;;;5113971;28;20425;-73
2021/01/19 08:20:06;;;;;;;2.27;2.07;;;5.60;99.90;;;;;;5102594;28;20902;-73
2021/01/19 08:22:31;;;;;;;4.37;2.70;;;5.50;99.90;;;;;;5118594;27;20413;-73
2021/01/19 08:25:00;;;;;;;3.90;2.30;;;5.50;99.90;;;;;;5124338;27;20494;-74
2021/01/19 08:27:30;;;;;;;3.33;2.33;;;5.60;99.90;;;;;;5111360;27;20216;-74
2021/01/19 08:29:55;;;;;;;5.10;4.03;;;5.60;99.90;;;;;;5114843;28;20422;-74
2021/01/19 08:32:21;;;;;;;4.03;2.63;;;5.60;99.90;;;;;;5124640;27;21030;-74
2021/01/19 08:34:47;;;;;;;3.13;2.20;;;5.60;99.90;;;;;;5114762;28;20652;-73
2021/01/19 08:37:17;;;;;;;2.70;2.50;;;5.60;99.90;;;;;;5109897;27;20203;-73
2021/01/19 08:39:53;;;;;;;3.13;2.50;;;5.70;99.90;;;;;;5127990;28;20494;-72
2021/01/19 08:42:20;;;;;;;6.60;2.20;;;5.70;99.90;;;;;;5119602;28;20910;-73
2021/01/19 08:44:58;;;;;;;1.90;1.80;;;5.70;99.90;;;;;;5129089;27;20496;-73
2021/01/19 08:47:27;;;;;;;3.73;2.80;;;5.70;99.90;;;;;;5102430;28;20445;-74
2021/01/19 08:49:52;;;;;;;2.23;2.00;;;5.80;99.90;;;;;;5108957;27;20450;-74
2021/01/19 08:52:25;;;;;;;2.33;1.73;;;5.70;99.90;;;;;;5118959;28;20456;-73
2021/01/19 08:54:52;;;;;;;2.73;1.83;;;5.70;99.90;;;;;;5133123;27;20224;-74
2021/01/19 08:57:21;;;;;;;3.80;1.90;;;5.60;99.90;;;;;;5112367;27;20493;-73
2021/01/19 08:59:55;;;;;;;1.90;1.80;;;5.70;99.90;;;;;;5112964;28;20452;-74
2021/01/19 09:02:29;;;;;;;2.40;2.20;;;5.70;99.90;;;;;;5112035;28;20455;-74
2021/01/19 09:04:55;;;;;;;2.97;1.70;;;5.60;99.90;;;;;;5125015;27;20512;-75
2021/01/19 09:07:28;;;;;;;3.40;2.30;;;5.60;99.90;;;;;;5123535;27;20888;-74
2021/01/19 09:09:54;;;;;;;4.43;1.83;;;5.60;99.90;;;;;;5118909;28;20177;-74
2021/01/19 09:12:22;;;;;;;1.93;1.73;;;5.60;99.90;;;;;;5113456;28;20778;-73
2021/01/19 09:14:52;;;;;;;2.40;2.20;;;5.70;99.90;;;;;;5118446;27;20171;-74
2021/01/19 09:17:27;;;;;;;2.10;2.00;;;5.70;99.90;;;;;;5116656;28;20429;-73
2021/01/19 09:20:04;;;;;;;4.30;2.50;;;5.60;99.90;;;;;;5116404;27;20456;-73
2021/01/19 09:22:29;;;;;;;2.40;2.20;;;5.60;99.90;;;;;;5124575;27;20427;-73
2021/01/19 09:24:55;;;;;;;2.90;1.83;;;5.60;99.90;;;;;;5128513;27;20414;-74
2021/01/19 09:27:21;;;;;;;2.40;2.20;;;5.60;99.90;;;;;;5137160;27;20255;-74
2021/01/19 09:29:46;;;;;;;2.20;2.00;;;5.60;99.90;;;;;;5124327;27;20429;-74
2021/01/19 09:32:12;;;;;;;2.83;2.63;;;5.60;99.90;;;;;;5123524;27;20242;-73
2021/01/19 09:34:38;;;;;;;4.07;2.30;;;5.70;99.90;;;;;;5129033;27;20183;-74
2021/01/19 09:37:09;;;;;;;2.90;1.70;;;5.70;99.90;;;;;;5125001;27;20279;-74
2021/01/19 09:39:34;;;;;;;2.93;2.63;;;5.70;99.90;;;;;;5117432;28;20453;-73
2021/01/19 09:42:03;;;;;;;3.73;2.97;;;5.70;99.90;;;;;;5132967;27;20407;-73
2021/01/19 09:44:30;;;;;;;2.70;2.37;;;5.70;99.90;;;;;;5124784;27;20168;-73
2021/01/19 09:47:04;;;;;;;2.73;2.53;;;5.70;99.90;;;;;;5131752;27;20429;-76
2021/01/19 09:49:31;;;;;;;3.60;2.63;;;5.70;99.90;;;;;;5134231;27;20494;-73
2021/01/19 09:52:07;;;;;;;2.90;2.10;;;5.70;99.90;;;;;;5131170;27;20406;-73
2021/01/19 09:54:33;;;;;;;2.03;1.93;;;5.80;99.90;;;;;;5124890;27;20416;-72
2021/01/19 09:56:59;;;;;;;2.80;2.60;;;5.80;99.90;;;;;;5120751;27;20521;-74
2021/01/19 09:59:30;;;;;;;2.57;2.37;;;5.90;99.90;;;;;;5118302;27;20192;-74
2021/01/19 10:01:59;;;;;;;2.97;2.33;;;5.90;99.90;;;;;;5125993;27;20410;-74
2021/01/19 10:04:26;;;;;;;2.03;1.80;;;5.90;99.90;;;;;;5121992;28;20773;-74
2021/01/19 10:07:26;;;;;;;2.27;2.10;;;5.90;99.90;;;;;;5131566;27;20433;-74
2021/01/19 10:09:52;;;;;;;2.50;2.30;;;5.90;99.90;;;;;;5063170;28;20505;-74
2021/01/19 10:12:18;;;;;;;2.83;2.60;;;5.90;99.90;;;;;;5085805;28;20526;-74
2021/01/19 10:14:44;;;;;;;2.70;2.37;;;5.90;99.90;;;;;;5083404;28;20547;-75
2021/01/19 10:17:09;;;;;;;2.70;2.50;;;5.90;99.90;;;;;;5069643;28;20456;-74
2021/01/19 10:19:37;;;;;;;3.13;2.87;;;5.90;99.90;;;;;;5087668;28;20213;-74
2021/01/19 10:22:07;;;;;;;3.30;3.00;;;5.80;99.90;;;;;;5074370;28;20190;-74
2021/01/19 10:24:33;;;;;;;3.77;3.17;;;5.80;99.90;;;;;;5079853;28;20410;-74
2021/01/19 10:27:04;;;;;;;4.60;4.20;;;5.90;99.90;;;;;;5079094;28;20443;-74
2021/01/19 10:29:38;;;;;;;4.43;3.50;;;5.90;99.90;;;;;;5072713;28;20913;-74
2021/01/19 10:32:07;;;;;;;3.70;3.40;;;5.80;99.90;;;;;;5072977;28;20516;-74
2021/01/19 10:34:36;;;;;;;3.43;3.23;;;5.80;99.90;;;;;;5064599;28;20435;-74
2021/01/19 10:37:02;;;;;;;4.53;3.50;;;5.90;99.90;;;;;;5077711;28;20448;-74
2021/01/19 10:39:30;;;;;;;2.67;2.47;;;5.90;99.90;;;;;;5088533;28;20527;-74
2021/01/19 10:41:57;;;;;;;3.47;3.20;;;5.90;99.90;;;;;;5083678;28;20427;-74
2021/01/19 10:44:26;;;;;;;2.90;2.70;;;6.00;99.90;;;;;;5075617;28;21229;-73
2021/01/19 10:47:00;;;;;;;3.03;2.83;;;6.00;99.90;;;;;;5127025;27;20444;-73
2021/01/19 10:49:30;;;;;;;3.40;3.10;;;5.90;99.90;;;;;;5117356;27;20987;-73
2021/01/19 10:51:56;;;;;;;4.20;3.53;;;5.90;99.90;;;;;;5128024;27;20416;-74
2021/01/19 10:54:24;;;;;;;3.97;3.60;;;5.90;99.90;;;;;;5137858;27;20405;-73
2021/01/19 10:57:01;;;;;;;3.00;2.77;;;6.00;99.90;;;;;;5139719;27;20444;-74
2021/01/19 10:59:26;;;;;;;3.60;3.30;;;6.00;99.90;;;;;;5154912;27;20448;-73
2021/01/19 11:01:52;;;;;;;4.73;3.60;;;6.00;99.90;;;;;;5146450;27;20405;-74
2021/01/19 11:04:17;;;;;;;3.60;3.40;;;6.00;99.90;;;;;;5145954;27;20192;-75
2021/01/19 11:06:43;;;;;;;3.70;3.30;;;6.10;99.90;;;;;;5138086;27;20223;-74
2021/01/19 11:09:08;;;;;;;4.27;3.90;;;6.10;99.90;;;;;;5125025;27;20172;-74
2021/01/19 11:11:35;;;;;;;3.23;3.03;;;6.20;99.90;;;;;;5127888;27;20258;-73
2021/01/19 11:14:04;;;;;;;3.70;3.20;;;6.20;99.90;;;;;;5130101;27;20185;-73
2021/01/19 11:16:34;;;;;;;3.73;3.43;;;6.20;99.90;;;;;;5133650;27;20468;-73
2021/01/19 11:19:03;;;;;;;3.47;3.27;;;6.30;99.90;;;;;;5117316;27;20458;-74
2021/01/19 11:21:33;;;;;;;3.87;3.53;;;6.20;99.90;;;;;;5133083;27;20526;-74
2021/01/19 11:24:00;;;;;;;3.03;2.83;;;6.30;99.90;;;;;;5135702;27;20939;-73
2021/01/19 11:26:26;;;;;;;3.30;2.80;;;6.30;99.90;;;;;;5114931;27;20434;-73
2021/01/19 11:28:52;;;;;;;3.13;2.90;;;6.30;99.90;;;;;;5127789;27;20420;-73
2021/01/19 11:31:22;;;;;;;3.60;3.30;;;6.40;99.90;;;;;;5137918;27;20456;-73
2021/01/19 11:33:48;;;;;;;2.80;2.60;;;6.40;99.90;;;;;;5116585;27;20441;-73
2021/01/19 11:36:28;;;;;;;4.13;2.70;;;6.40;99.90;;;;;;5106666;27;20840;-73
2021/01/19 11:38:55;;;;;;;3.17;2.87;;;6.50;99.90;;;;;;5108231;27;20192;-73
2021/01/19 11:41:22;;;;;;;3.40;2.80;;;6.50;99.90;;;;;;5127510;27;20416;-73
2021/01/19 11:43:49;;;;;;;2.57;2.37;;;6.50;99.90;;;;;;5134840;27;20773;-73
2021/01/19 11:46:25;;;;;;;3.40;3.20;;;6.60;99.90;;;;;;5115297;27;20435;-73
2021/01/19 11:48:52;;;;;;;3.40;3.10;;;6.60;99.90;;;;;;5116326;27;20506;-73
2021/01/19 11:51:20;;;;;;;3.27;2.97;;;6.60;99.90;;;;;;5121352;27;20492;-73
2021/01/19 11:53:47;;;;;;;3.10;2.90;;;6.60;99.90;;;;;;5136902;27;20905;-74
2021/01/19 11:56:13;;;;;;;4.17;3.60;;;6.60;99.90;;;;;;5118613;27;20492;-73
2021/01/19 11:58:39;;;;;;;3.07;2.83;;;6.70;99.90;;;;;;5099412;28;20458;-73
2021/01/19 12:01:04;;;;;;;3.40;3.10;;;6.70;99.90;;;;;;5113638;27;20186;-73
2021/01/19 12:03:30;;;;;;;3.20;3.00;;;6.70;99.90;;;;;;5136567;27;20179;-74
2021/01/19 12:05:55;;;;;;;3.33;3.07;;;6.70;99.90;;;;;;5100029;27;20274;-73
2021/01/19 12:08:21;;;;;;;3.53;3.23;;;6.70;99.90;;;;;;5116288;27;20198;-73
2021/01/19 12:10:46;;;;;;;3.23;2.93;;;6.80;99.90;;;;;;5133549;27;20539;-73
2021/01/19 12:13:13;;;;;;;3.07;2.87;;;6.70;99.90;;;;;;5106799;28;20277;-74
2021/01/19 12:15:43;;;;;;;2.70;2.50;;;6.80;99.90;;;;;;5117421;27;20341;-73
2021/01/19 12:18:11;;;;;;;3.30;3.10;;;6.80;99.90;;;;;;5115563;27;20449;-74
2021/01/19 12:20:38;;;;;;;3.53;3.30;;;6.90;99.90;;;;;;5122966;27;20505;-74
2021/01/19 12:23:04;;;;;;;3.13;2.93;;;6.90;99.90;;;;;;5120489;27;20420;-74
2021/01/19 12:25:30;;;;;;;3.47;3.13;;;6.80;99.90;;;;;;5096468;28;20442;-73
2021/01/19 12:27:57;;;;;;;4.30;3.90;;;6.80;99.90;;;;;;5101181;28;20412;-73
2021/01/19 12:30:23;;;;;;;3.50;3.20;;;6.80;99.90;;;;;;5129210;27;20441;-74
2021/01/19 12:32:49;;;;;;;4.10;3.70;;;6.90;99.90;;;;;;5101963;27;20798;-74
2021/01/19 12:35:15;;;;;;;3.33;3.13;;;6.90;99.90;;;;;;5122901;28;20475;-74
2021/01/19 12:37:40;;;;;;;3.50;3.30;;;6.90;99.90;;;;;;5133020;27;20207;-74
2021/01/19 12:40:07;;;;;;;3.90;3.60;;;7.00;99.90;;;;;;5115351;28;20175;-74
2021/01/19 12:42:32;;;;;;;5.00;3.70;;;7.00;99.90;;;;;;5103704;28;20172;-74
2021/01/19 12:44:58;;;;;;;3.87;3.57;;;7.00;99.90;;;;;;5123757;28;20483;-74
2021/01/19 12:47:24;;;;;;;4.23;3.93;;;7.00;99.90;;;;;;5130060;27;20218;-74
2021/01/19 12:49:50;;;;;;;4.30;4.00;;;7.00;99.90;;;;;;5135716;27;20519;-74
2021/01/19 12:52:16;;;;;;;4.57;3.80;;;7.00;99.90;;;;;;5134483;27;20416;-74
2021/01/19 12:54:42;;;;;;;4.83;3.57;;;7.00;99.90;;;;;;5138226;27;20260;-74
2021/01/19 12:57:12;;;;;;;5.07;4.40;;;7.10;99.90;;;;;;5132189;27;20429;-74
2021/01/19 12:59:39;;;;;;;4.50;4.10;;;7.10;99.90;;;;;;5121116;27;20185;-74
2021/01/19 13:02:05;;;;;;;3.70;3.50;;;7.10;99.90;;;;;;5119339;27;20445;-74
2021/01/19 13:04:31;;;;;;;4.60;4.20;;;7.10;99.90;;;;;;5130875;27;20417;-73
2021/01/19 13:06:57;;;;;;;4.30;4.00;;;7.20;99.90;;;;;;5117182;28;20958;-73
2021/01/19 13:09:23;;;;;;;4.20;3.90;;;7.20;99.90;;;;;;5134385;27;20412;-74